• Join FlightAware (Why Join?)
  • Login
  • US Flag 
 
04:39AM EST


 

Airport Tracker/Info


-or-


 

Live Flight TrackerFlight Track Log ✈ N966QS ✈ 23-Jun-2013 ✈ KBPT - KOKC

Flight Track Log - Related Links

Times and Time Zones

All times are in EDT time to prevent confusion due to time zone crossing. See the N966QS flight status page for this flight to view local times or setup timezone preferences in your user account.

Time Position Orientation Groundspeed Altitude Reporting Facility
EDT Latitude Longitude Course Direction KTS MPH feet Rate Location/Type
05:19PM 29.9344 -94.0175 80° East 174 200 1,100  Level Houston Center
05:20PM 29.9467 -93.9339 80° East 236 272 6,500 3,720 Climbing Houston Center
05:21PM 30.0147 -93.9147 14° North 280 322 9,900 1,680 Climbing Houston Center
05:22PM 30.1233 -93.9297 353° North 372 428 10,000 180 Climbing Houston Center
05:23PM 30.2367 -93.9450 353° North 401 461 10,300 480 Climbing Houston Center
05:24PM 30.3519 -93.9592 354° North 409 471 11,000 300 Climbing Houston Center
05:25PM 30.4694 -93.9742 354° North 416 479 11,000 480 Level Houston Center
05:26PM 30.5831 -94.0003 349° North 418 481 12,000 1,200 Climbing Houston Center
05:27PM 30.6839 -94.0681 330° Northwest 417 480 13,600 900 Climbing Houston Center
05:28PM 30.8047 -94.1539 329° Northwest 425 489 13,900 660 Climbing Houston Center
05:29PM 30.9003 -94.2208 329° Northwest 431 496 15,000 1,620 Climbing Houston Center
05:30PM 30.9969 -94.2892 329° Northwest 412 474 17,300 1,980 Climbing Houston Center
05:32PM 31.1075 -94.3683 328° Northwest 394 453 19,200 1,560 Climbing Houston Center
05:33PM 31.2044 -94.4372 329° Northwest 408 470 20,600 1,320 Climbing Houston Center
05:34PM 31.3017 -94.5061 329° Northwest 413 475 22,000 1,200 Climbing Houston Center
05:35PM 31.4017 -94.5783 328° Northwest 428 493 23,200 1,260 Climbing Houston Center
05:36PM 31.5269 -94.6661 329° Northwest 441 507 24,700 1,260 Climbing Houston Center
05:37PM 31.6331 -94.7442 328° Northwest 451 519 25,900 1,080 Climbing Houston Center
05:38PM 31.7417 -94.8231 328° Northwest 459 528 27,000 900 Climbing Houston Center
05:39PM 31.8375 -94.8922 328° Northwest 463 533 27,700 480 Climbing Fort Worth Center
05:40PM 31.9497 -94.9772 327° Northwest 468 539 28,000 120 Climbing Fort Worth Center
05:41PM 32.0683 -95.0622 329° Northwest 487 560 28,000 300 Level Fort Worth Center
05:42PM 32.1889 -95.1525 328° Northwest 500 575 28,600 840 Climbing Fort Worth Center
05:43PM 32.3178 -95.2453 329° Northwest 500 575 29,700 1,020 Climbing Fort Worth Center
05:44PM 32.4342 -95.3311 328° Northwest 500 575 30,700 960 Climbing Fort Worth Center
05:45PM 32.5544 -95.4169 329° Northwest 505 581 31,700 960 Climbing Fort Worth Center
05:46PM 32.6708 -95.5033 328° Northwest 505 581 32,700 900 Climbing Fort Worth Center
05:47PM 32.7889 -95.5922 328° Northwest 500 575 33,600 900 Climbing Fort Worth Center
05:48PM 32.9069 -95.6764 329° Northwest 500 575 34,600 900 Climbing Fort Worth Center
05:49PM 33.0250 -95.7658 328° Northwest 500 575 35,400 600 Climbing Fort Worth Center
05:50PM 33.1411 -95.8556 327° Northwest 505 581 35,900 300 Climbing Fort Worth Center
05:51PM 33.2611 -95.9453 328° Northwest 505 581 36,000  Climbing Fort Worth Center
05:52PM 33.3811 -96.0328 329° Northwest 505 581 36,000  Level Fort Worth Center
05:53PM 33.4989 -96.1231 327° Northwest 505 581 36,000  Level Fort Worth Center
05:54PM 33.6083 -96.2064 328° Northwest 505 581 36,000  Level Fort Worth Center
05:55PM 33.7281 -96.2972 328° Northwest 505 581 36,000 -540 Level Fort Worth Center
05:56PM 33.8458 -96.3881 327° Northwest 505 581 35,000 -1,800 Descending Fort Worth Center
05:57PM 33.9675 -96.4819 327° Northwest 505 581 32,500 480 Descending Fort Worth Center
05:58PM 34.0914 -96.5758 328° Northwest 511 588 36,000 -2,820 Climbing Fort Worth Center
05:59PM 34.2172 -96.6853 324° Northwest 511 588 26,900 -5,700 Descending Fort Worth Center
06:00PM 34.3344 -96.7722 329° Northwest 506 582 24,600 -2,340 Descending Fort Worth Center
06:01PM 34.4456 -96.8594 327° Northwest 500 575 22,300 -2,280 Descending Fort Worth Center
06:02PM 34.5542 -96.9419 328° Northwest 487 560 20,100 -2,220 Descending Fort Worth Center
06:03PM 34.6589 -97.0272 326° Northwest 468 539 17,900 -2,100 Descending Fort Worth Center
06:04PM 34.7592 -97.1028 328° Northwest 449 517 15,900 -2,100 Descending Fort Worth Center
06:05PM 34.8617 -97.1833 327° Northwest 443 510 13,800 -2,100 Descending Fort Worth Center
06:06PM 34.9556 -97.2564 327° Northwest 429 494 11,800 -1,800 Descending Fort Worth Center
06:07PM 35.0328 -97.3172 327° Northwest 382 440 10,200 -1,500 Descending Fort Worth Center
06:08PM 35.1039 -97.3731 327° Northwest 332 382 8,800 -1,440 Descending Fort Worth Center
06:09PM 35.1725 -97.4289 326° Northwest 302 348 7,400 -1,320 Descending Fort Worth Center
06:10PM 35.2414 -97.4822 328° Northwest 297 342 6,200 -1,140 Descending Fort Worth Center
06:11PM 35.3122 -97.5153 339° North 284 327 5,200 -1,080 Descending Fort Worth Center
06:12PM 35.3728 -97.5333 346° North 270 311 4,100 -720 Descending Fort Worth Center
06:13PM 35.4333 -97.5383 356° North 242 278 3,800 -900 Descending Fort Worth Center
06:14PM 35.4519 -97.5792 299° West 153 176 2,400 -1,080 Descending Fort Worth Center
06:15PM 35.4228 -97.5919 200° South 69 79 1,700 -540 Descending Fort Worth Center
06:16PM 35.3978 -97.6019 198° South 73 84 1,400 -300 Descending Fort Worth Center